createdAt,value
2019-03-23T00:01:54.139Z,100125.95
2019-03-23T00:04:25.445Z,100124.69
2019-03-23T00:06:55.393Z,100117.41
2019-03-23T00:09:25.003Z,100121.63
2019-03-23T00:11:56.806Z,100118.91
2019-03-23T00:14:26.433Z,100116.21
2019-03-23T00:16:58.260Z,100126.34
2019-03-23T00:19:30.152Z,100130.83
2019-03-23T00:21:59.772Z,100129.28
2019-03-23T00:24:31.652Z,100132.12
2019-03-23T00:27:04.054Z,100130.93
2019-03-23T00:29:35.035Z,100138.78
2019-03-23T00:32:04.660Z,100135.98
2019-03-23T00:34:35.462Z,100134.06
2019-03-23T00:37:05.149Z,100129.90
2019-03-23T00:39:34.764Z,100130.09
2019-03-23T00:42:04.381Z,100132.98
2019-03-23T00:44:34.002Z,100133.33
2019-03-23T00:47:03.589Z,100134.33
2019-03-23T00:49:33.276Z,100129.33
2019-03-23T00:52:02.884Z,100127.05
2019-03-23T00:54:32.490Z,100134.67
2019-03-23T00:57:04.674Z,100137.68
2019-03-23T00:59:34.305Z,100134.02
2019-03-23T01:02:03.989Z,100136.05
2019-03-23T01:04:34.680Z,100140.75
2019-03-23T01:07:04.701Z,100140.52
2019-03-23T01:09:34.325Z,100136.13
2019-03-23T01:12:04.104Z,100136.39
2019-03-23T01:14:37.155Z,100140.80
2019-03-23T01:17:06.775Z,100137.66
2019-03-23T01:19:36.400Z,100138.36
2019-03-23T01:22:07.391Z,100132.64
2019-03-23T01:24:36.995Z,100124.61
2019-03-23T01:27:06.645Z,100130.66
2019-03-23T01:29:37.261Z,100131.39
2019-03-23T01:32:09.080Z,100136.28
2019-03-23T01:34:38.656Z,100129.93
2019-03-23T01:37:08.320Z,100127.10
2019-03-23T01:39:40.271Z,100128.25
2019-03-23T01:42:10.058Z,100127.33
2019-03-23T01:44:39.714Z,100134.22
2019-03-23T01:47:09.449Z,100128.97
2019-03-23T01:49:39.033Z,100127.36
2019-03-23T01:52:09.752Z,100125.19
2019-03-23T01:54:39.390Z,100131.86
2019-03-23T01:57:11.342Z,100130.94
2019-03-23T01:59:42.353Z,100129.95
2019-03-23T02:02:12.090Z,100128.86
2019-03-23T02:04:41.712Z,100131.20
2019-03-23T02:07:14.364Z,100132.91
2019-03-23T02:09:45.006Z,100134.28
2019-03-23T02:12:16.693Z,100132.91
2019-03-23T02:14:46.365Z,100130.97
2019-03-23T02:17:16.103Z,100133.46
2019-03-23T02:19:45.853Z,100129.17
2019-03-23T02:22:15.450Z,100131.47
2019-03-23T02:24:45.144Z,100133.86
2019-03-23T02:27:14.859Z,100126.77
2019-03-23T02:29:44.515Z,100127.53
2019-03-23T02:32:14.182Z,100133.80
2019-03-23T02:34:43.847Z,100136.66
2019-03-23T02:37:26.916Z,100135.67
2019-03-23T02:39:44.757Z,100132.66
2019-03-23T02:42:14.396Z,100126.88
2019-03-23T02:44:44.051Z,99965.07
2019-03-23T02:47:15.531Z,100129.56
2019-03-23T02:49:45.221Z,100123.16
2019-03-23T02:52:14.886Z,100121.91
2019-03-23T02:54:44.519Z,100124.72
2019-03-23T02:57:14.184Z,100122.61
2019-03-23T02:59:43.969Z,100122.50
2019-03-23T03:02:13.607Z,100120.04
2019-03-23T03:04:43.270Z,100126.27
2019-03-23T03:07:12.950Z,100130.22
2019-03-23T03:09:42.561Z,100129.88
2019-03-23T03:12:12.190Z,100128.37
2019-03-23T03:14:41.946Z,100129.97
2019-03-23T03:17:11.669Z,100128.33
2019-03-23T03:19:41.362Z,100130.77
2019-03-23T03:22:10.984Z,100129.89
2019-03-23T03:24:41.615Z,100129.40
2019-03-23T03:27:11.303Z,100129.38
2019-03-23T03:29:43.375Z,100129.29
2019-03-23T03:32:13.145Z,100135.77
2019-03-23T03:34:44.156Z,100132.61
2019-03-23T03:37:13.896Z,100133.72
2019-03-23T03:39:43.833Z,100131.86
2019-03-23T03:42:13.585Z,100135.79
2019-03-23T03:44:44.507Z,100133.08
2019-03-23T03:47:14.226Z,100132.64
2019-03-23T03:49:45.954Z,100122.98
2019-03-23T03:52:15.529Z,100129.48
2019-03-23T03:54:45.170Z,100135.53
2019-03-23T03:57:15.157Z,100130.30
2019-03-23T03:59:44.792Z,100065.44
2019-03-23T04:02:16.287Z,100120.95
2019-03-23T04:04:49.343Z,100122.27
2019-03-23T04:07:19.155Z,100118.92
2019-03-23T04:09:48.821Z,100118.14
2019-03-23T04:12:18.444Z,100123.19
2019-03-23T04:14:49.964Z,100124.36
2019-03-23T04:17:21.923Z,100124.02
2019-03-23T04:19:51.582Z,100125.20
2019-03-23T04:22:24.521Z,100125.31
2019-03-23T04:24:56.144Z,100122.73
2019-03-23T04:27:26.060Z,100122.06
2019-03-23T04:29:59.679Z,100122.73
2019-03-23T04:32:29.990Z,100130.74
2019-03-23T04:35:01.330Z,100128.52
2019-03-23T04:37:34.871Z,100124.58
2019-03-23T04:40:04.720Z,100125.22
2019-03-23T04:42:34.414Z,100131.68
2019-03-23T04:45:05.419Z,100133.70
2019-03-23T04:47:35.172Z,100132.06
2019-03-23T04:50:05.301Z,100128.52
2019-03-23T04:52:38.535Z,100128.38
2019-03-23T04:55:10.230Z,100127.08
2019-03-23T04:57:40.844Z,100135.70
2019-03-23T05:00:11.123Z,100134.11
2019-03-23T05:02:41.193Z,100131.63
2019-03-23T05:05:15.111Z,100135.11
2019-03-23T05:07:47.325Z,100137.02
2019-03-23T05:10:17.003Z,100129.84
2019-03-23T05:12:46.727Z,100129.34
2019-03-23T05:15:16.451Z,100134.64
2019-03-23T05:17:46.144Z,100141.76
2019-03-23T05:20:28.267Z,100142.63
2019-03-23T05:22:59.598Z,100135.84
2019-03-23T05:25:29.216Z,100135.11
2019-03-23T05:28:01.712Z,100139.53
2019-03-23T05:30:31.295Z,100145.16
2019-03-23T05:33:03.233Z,100146.95
2019-03-23T05:35:35.241Z,100151.89
2019-03-23T05:38:04.912Z,100151.94
2019-03-23T05:40:34.549Z,100150.69
2019-03-23T05:43:04.236Z,100145.01
2019-03-23T05:45:33.843Z,100148.98
2019-03-23T05:48:03.575Z,100144.72
2019-03-23T05:50:36.251Z,100041.11
2019-03-23T05:53:07.240Z,100149.81
2019-03-23T05:55:36.950Z,100150.06
2019-03-23T05:58:06.691Z,100149.41
2019-03-23T06:00:36.295Z,100155.30
2019-03-23T06:03:05.981Z,100153.95
2019-03-23T06:05:35.651Z,100155.24
2019-03-23T06:08:05.301Z,100163.77
2019-03-23T06:10:34.920Z,100164.20
2019-03-23T06:13:04.590Z,100167.16
2019-03-23T06:15:36.618Z,100166.92
2019-03-23T06:18:06.376Z,100166.89
2019-03-23T06:20:36.027Z,100165.13
2019-03-23T06:23:05.788Z,100171.14
2019-03-23T06:25:35.675Z,100174.26
2019-03-23T06:28:05.355Z,100171.48
2019-03-23T06:30:35.027Z,100179.48
2019-03-23T06:33:04.700Z,100176.20
2019-03-23T06:35:36.563Z,100174.30
2019-03-23T06:38:06.267Z,100170.36
2019-03-23T06:40:37.939Z,100176.37
2019-03-23T06:43:09.641Z,100182.77
2019-03-23T06:45:39.373Z,100178.83
2019-03-23T06:48:09.034Z,100181.72
2019-03-23T06:50:38.859Z,100184.38
2019-03-23T06:53:09.730Z,100184.30
2019-03-23T06:55:39.591Z,100185.41
2019-03-23T06:58:09.356Z,100175.83
2019-03-23T07:00:39.013Z,100182.52
2019-03-23T07:03:12.143Z,100186.16
2019-03-23T07:05:41.904Z,100191.28
2019-03-23T07:08:11.589Z,100195.12
2019-03-23T07:10:41.419Z,100194.79
2019-03-23T07:13:11.108Z,100191.52
2019-03-23T07:15:43.038Z,100196.57
2019-03-23T07:18:12.649Z,100192.44
2019-03-23T07:20:42.386Z,100187.67
2019-03-23T07:23:12.051Z,100194.68
2019-03-23T07:25:43.229Z,100195.45
2019-03-23T07:28:12.927Z,100196.72
2019-03-23T07:30:42.587Z,100191.80
2019-03-23T07:33:14.783Z,100189.05
2019-03-23T07:35:44.515Z,100195.39
2019-03-23T07:38:14.496Z,100196.58
2019-03-23T07:40:47.025Z,100187.97
2019-03-23T07:43:16.961Z,100185.34
2019-03-23T07:45:46.585Z,100187.25
2019-03-23T07:48:16.177Z,100181.36
2019-03-23T07:50:45.859Z,100177.58
2019-03-23T07:53:15.635Z,100179.78
2019-03-23T07:55:45.316Z,100174.75
2019-03-23T07:58:15.040Z,100171.25
2019-03-23T08:00:46.030Z,100171.28
2019-03-23T08:03:16.819Z,100182.63
2019-03-23T08:05:46.534Z,100184.03
2019-03-23T08:08:16.166Z,100184.16
2019-03-23T08:10:46.374Z,100182.95
2019-03-23T08:13:17.596Z,100183.28
2019-03-23T08:15:47.231Z,100183.17
2019-03-23T08:18:17.003Z,100187.33
2019-03-23T08:20:46.983Z,100186.77
2019-03-23T08:23:16.846Z,100184.16
2019-03-23T08:25:46.848Z,100182.75
2019-03-23T08:28:16.570Z,100182.01
2019-03-23T08:30:46.376Z,100183.44
2019-03-23T08:33:18.378Z,100183.58
2019-03-23T08:35:47.972Z,100182.17
2019-03-23T08:38:17.948Z,100184.79
2019-03-23T08:40:47.972Z,100190.34
2019-03-23T08:43:17.892Z,100181.66
2019-03-23T08:45:47.730Z,100181.36
2019-03-23T08:48:17.332Z,100182.00
2019-03-23T08:50:48.910Z,100181.99
2019-03-23T08:53:24.465Z,100182.70
2019-03-23T08:55:54.269Z,100186.45
2019-03-23T08:58:31.150Z,100185.28
2019-03-23T09:01:01.261Z,100181.30
2019-03-23T09:03:32.214Z,100177.38
2019-03-23T09:06:01.889Z,100179.37
2019-03-23T09:08:33.907Z,100183.34
2019-03-23T09:11:03.646Z,100175.77
2019-03-23T09:13:40.515Z,100179.78
2019-03-23T09:16:05.775Z,100179.27
2019-03-23T09:18:35.395Z,100181.36
2019-03-23T09:21:05.033Z,100181.45
2019-03-23T09:23:36.131Z,100177.54
2019-03-23T09:26:05.785Z,100184.54
2019-03-23T09:28:35.406Z,100180.98
2019-03-23T09:31:05.093Z,100171.56
2019-03-23T09:33:34.715Z,100173.28
2019-03-23T09:36:04.361Z,100168.33
2019-03-23T09:38:33.990Z,100168.76
2019-03-23T09:41:03.651Z,100176.55
2019-03-23T09:43:33.330Z,100172.91
2019-03-23T09:46:04.094Z,100167.31
2019-03-23T09:48:52.200Z,100170.77
2019-03-23T09:51:23.634Z,100159.70
2019-03-23T09:53:53.258Z,100159.80
2019-03-23T09:56:25.242Z,100166.30
2019-03-23T09:58:54.885Z,100154.19
2019-03-23T10:01:24.550Z,100156.09
2019-03-23T10:03:56.477Z,100151.66
2019-03-23T10:06:26.090Z,100153.90
2019-03-23T10:08:55.761Z,100150.09
2019-03-23T10:11:27.144Z,100150.53
2019-03-23T10:14:04.922Z,100151.03
2019-03-23T10:16:34.825Z,100143.69
2019-03-23T10:19:04.616Z,100140.77
2019-03-23T10:21:34.336Z,100141.78
2019-03-23T10:24:05.467Z,100140.23
2019-03-23T10:26:35.105Z,100140.48
2019-03-23T10:29:04.716Z,100143.98
2019-03-23T10:31:34.311Z,100142.75
2019-03-23T10:34:03.883Z,100128.30
2019-03-23T10:36:33.574Z,100128.94
2019-03-23T10:39:05.170Z,100131.42
2019-03-23T10:41:35.078Z,100127.48
2019-03-23T10:44:06.789Z,100132.57
2019-03-23T10:46:36.435Z,100126.52
2019-03-23T10:49:06.081Z,100126.45
2019-03-23T10:51:37.102Z,100127.95
2019-03-23T10:54:06.806Z,100119.08
2019-03-23T10:56:36.374Z,100115.78
2019-03-23T10:59:06.057Z,100115.94
2019-03-23T11:01:35.699Z,100113.75
2019-03-23T11:04:05.348Z,100106.91
2019-03-23T11:06:35.032Z,100109.93
2019-03-23T11:09:05.913Z,100109.93
2019-03-23T11:11:35.523Z,100105.80
2019-03-23T11:14:05.143Z,100105.02
2019-03-23T11:16:34.696Z,100103.42
2019-03-23T11:19:13.279Z,100107.23
2019-03-23T11:21:36.520Z,100107.23
2019-03-23T11:24:07.874Z,100107.50
2019-03-23T11:26:38.616Z,100106.02
2019-03-23T11:29:08.544Z,100103.83
2019-03-23T11:31:38.311Z,100095.94
2019-03-23T11:34:17.504Z,100100.68
2019-03-23T11:36:40.519Z,100107.05
2019-03-23T11:39:10.202Z,100101.44
2019-03-23T11:41:39.849Z,100098.06
2019-03-23T11:44:10.727Z,100098.06
2019-03-23T11:46:42.404Z,100089.11
2019-03-23T11:49:12.110Z,100092.45
2019-03-23T11:51:41.720Z,100092.45
2019-03-23T11:54:11.401Z,100103.09
2019-03-23T11:56:42.298Z,100093.45
2019-03-23T11:59:15.370Z,100101.02
2019-03-23T12:01:51.753Z,100096.32
2019-03-23T12:04:19.906Z,100087.05
2019-03-23T12:06:51.757Z,100095.45
2019-03-23T12:09:22.614Z,100098.02
2019-03-23T12:11:52.274Z,100087.93
2019-03-23T12:14:23.453Z,100089.97
2019-03-23T12:16:53.084Z,100090.64
2019-03-23T12:19:23.109Z,100082.17
2019-03-23T12:21:52.948Z,100077.80
2019-03-23T12:24:23.693Z,100075.73
2019-03-23T12:26:55.466Z,100081.69
2019-03-23T12:29:25.112Z,100067.22
2019-03-23T12:31:54.785Z,100066.08
2019-03-23T12:34:25.413Z,100066.12
2019-03-23T12:36:55.029Z,100066.18
2019-03-23T12:39:24.733Z,100059.17
2019-03-23T12:41:54.378Z,100060.77
2019-03-23T12:44:23.925Z,100057.90
2019-03-23T12:46:53.596Z,100058.27
2019-03-23T12:49:24.512Z,100060.37
2019-03-23T12:51:54.176Z,100058.95
2019-03-23T12:54:23.873Z,100054.14
2019-03-23T12:56:53.613Z,100054.22
2019-03-23T12:59:23.301Z,100051.34
2019-03-23T13:01:53.015Z,100050.28
2019-03-23T13:04:22.897Z,100048.47
2019-03-23T13:06:52.868Z,100044.58
2019-03-23T13:09:22.773Z,100040.19
2019-03-23T13:11:52.419Z,100036.66
2019-03-23T13:14:22.936Z,100033.06
2019-03-23T13:16:52.547Z,100040.41
2019-03-23T13:19:24.415Z,100036.41
2019-03-23T13:21:54.569Z,100032.30
2019-03-23T13:24:26.166Z,100032.30
2019-03-23T13:26:55.829Z,100025.88
2019-03-23T13:29:25.759Z,100023.11
2019-03-23T13:31:56.335Z,100005.73
2019-03-23T13:34:27.104Z,100005.73
2019-03-23T13:36:56.810Z,100018.80
2019-03-23T13:39:31.800Z,100028.62
2019-03-23T13:42:01.414Z,100021.70
2019-03-23T13:44:32.304Z,100019.84
2019-03-23T13:47:04.690Z,100030.91
2019-03-23T13:49:34.658Z,100024.50
2019-03-23T13:52:04.354Z,100010.74
2019-03-23T13:54:35.750Z,100016.87
2019-03-23T13:57:05.824Z,100011.27
2019-03-23T13:59:35.795Z,100012.69
2019-03-23T14:02:05.478Z,100011.00
2019-03-23T14:04:36.659Z,100004.56
2019-03-23T14:07:06.297Z,100008.13
2019-03-23T14:09:38.498Z,100012.16
2019-03-23T14:12:08.140Z,100006.00
2019-03-23T14:14:37.829Z,100006.42
2019-03-23T14:17:07.649Z,100004.61
2019-03-23T14:19:38.496Z,100001.22
2019-03-23T14:22:09.214Z,99990.91
2019-03-23T14:24:42.611Z,99995.03
2019-03-23T14:27:12.472Z,99987.25
2019-03-23T14:29:45.518Z,99996.34
2019-03-23T14:32:15.263Z,99993.33
2019-03-23T14:34:46.176Z,99986.59
2019-03-23T14:37:16.113Z,99986.56
2019-03-23T14:39:46.368Z,99991.47
2019-03-23T14:42:16.327Z,99989.11
2019-03-23T14:44:47.050Z,99989.47
2019-03-23T14:47:17.052Z,99981.41
2019-03-23T14:49:49.065Z,99980.52
2019-03-23T14:52:18.869Z,99982.04
2019-03-23T14:54:54.721Z,99979.18
2019-03-23T14:57:24.983Z,99977.53
2019-03-23T14:59:54.615Z,99976.78
2019-03-23T15:02:26.560Z,99972.41
2019-03-23T15:04:57.666Z,99972.78
2019-03-23T15:07:27.244Z,99974.91
2019-03-23T15:09:58.299Z,99978.82
2019-03-23T15:12:28.202Z,99973.62
2019-03-23T15:14:57.807Z,99973.62
2019-03-23T15:17:27.487Z,99970.42
2019-03-23T15:19:57.269Z,99976.16
2019-03-23T15:22:29.093Z,99967.75
2019-03-23T15:24:59.852Z,99964.22
2019-03-23T15:27:29.590Z,99964.38
2019-03-23T15:30:08.909Z,99966.69
2019-03-23T15:32:38.996Z,99966.64
2019-03-23T15:35:11.903Z,99960.94
2019-03-23T15:37:42.613Z,99966.97
2019-03-23T15:40:12.409Z,99966.34
2019-03-23T15:42:42.075Z,99967.68
2019-03-23T15:45:12.594Z,99963.44
2019-03-23T15:47:42.228Z,99967.12
2019-03-23T15:50:11.898Z,99970.09
2019-03-23T15:52:41.538Z,99970.30
2019-03-23T15:55:11.249Z,99970.30
2019-03-23T15:57:41.255Z,99965.53
2019-03-23T16:00:11.901Z,99966.75
2019-03-23T16:02:41.559Z,99978.72
2019-03-23T16:05:11.459Z,99978.72
2019-03-23T16:07:41.217Z,99986.52
2019-03-23T16:10:14.178Z,99994.66
2019-03-23T16:12:47.042Z,99994.04
2019-03-23T16:15:17.181Z,99993.57
2019-03-23T16:17:46.922Z,100002.62
2019-03-23T16:20:18.583Z,100002.44
2019-03-23T16:22:50.545Z,100002.44
2019-03-23T16:25:20.794Z,100010.36
2019-03-23T16:27:50.697Z,100011.10
2019-03-23T16:30:32.492Z,100013.56
2019-03-23T16:33:04.467Z,99914.50
2019-03-23T16:35:35.236Z,100018.38
2019-03-23T16:38:04.923Z,100018.25
2019-03-23T16:40:34.546Z,100030.95
2019-03-23T16:43:06.261Z,100031.28
2019-03-23T16:45:36.806Z,100041.22
2019-03-23T16:48:07.561Z,100037.77
2019-03-23T16:50:40.754Z,100047.47
2019-03-23T16:53:10.415Z,100041.91
2019-03-23T16:55:41.463Z,100049.67
2019-03-23T16:58:15.971Z,100051.00
2019-03-23T17:00:42.561Z,100051.11
2019-03-23T17:03:14.475Z,100058.01
2019-03-23T17:05:45.606Z,100055.99
2019-03-23T17:08:17.705Z,100061.31
2019-03-23T17:10:56.605Z,100066.33
2019-03-23T17:13:26.321Z,100065.19
2019-03-23T17:15:57.127Z,100070.80
2019-03-23T17:18:26.906Z,100069.13
2019-03-23T17:20:56.603Z,100076.27
2019-03-23T17:23:29.622Z,100089.48
2019-03-23T17:26:00.833Z,100087.28
2019-03-23T17:28:30.463Z,100094.13
2019-03-23T17:31:02.184Z,100105.20
2019-03-23T17:33:36.932Z,100101.01
2019-03-23T17:36:07.616Z,100107.55
2019-03-23T17:38:41.529Z,100107.67
2019-03-23T17:41:13.494Z,100110.66
2019-03-23T17:43:43.214Z,100116.91
2019-03-23T17:46:13.994Z,100111.83
2019-03-23T17:48:44.003Z,100111.72
2019-03-23T17:51:13.796Z,100116.07
2019-03-23T17:53:43.403Z,100121.53
2019-03-23T17:56:16.994Z,100128.68
2019-03-23T17:58:48.970Z,100125.52
2019-03-23T18:01:19.693Z,100128.44
2019-03-23T18:03:51.647Z,100134.09
2019-03-23T18:06:22.457Z,100131.79
2019-03-23T18:08:52.075Z,100133.25
2019-03-23T18:11:23.998Z,100137.38
2019-03-23T18:13:53.749Z,100145.92
2019-03-23T18:16:24.717Z,100144.25
2019-03-23T18:18:54.377Z,100145.44
2019-03-23T18:21:25.938Z,100149.89
2019-03-23T18:23:55.859Z,100150.43
2019-03-23T18:26:27.324Z,100149.11
2019-03-23T18:28:57.195Z,100151.98
2019-03-23T18:31:27.252Z,100150.00
2019-03-23T18:33:57.527Z,100158.78
2019-03-23T18:36:28.449Z,100158.83
2019-03-23T18:38:59.117Z,100161.77
2019-03-23T18:41:28.909Z,100161.34
2019-03-23T18:43:59.177Z,100169.21
2019-03-23T18:46:30.594Z,100170.69
2019-03-23T18:49:00.494Z,100173.61
2019-03-23T18:51:30.148Z,100171.58
2019-03-23T18:54:00.047Z,100180.92
2019-03-23T18:56:30.805Z,100184.78
2019-03-23T18:59:00.613Z,100175.66
2019-03-23T19:01:30.260Z,100182.39
2019-03-23T19:04:01.804Z,100189.05
2019-03-23T19:06:33.443Z,100188.37
2019-03-23T19:09:03.853Z,100196.69
2019-03-23T19:11:33.441Z,100198.27
2019-03-23T19:14:05.587Z,100193.59
2019-03-23T19:16:35.483Z,100196.84
2019-03-23T19:19:05.213Z,100201.28
2019-03-23T19:21:34.945Z,100196.09
2019-03-23T19:24:04.549Z,100203.09
2019-03-23T19:26:34.333Z,100200.48
2019-03-23T19:29:03.889Z,100194.20
2019-03-23T19:31:33.574Z,100201.09
2019-03-23T19:34:03.232Z,100200.05
2019-03-23T19:36:32.912Z,100195.63
2019-03-23T19:39:05.108Z,100197.58
2019-03-23T19:41:34.840Z,100207.40
2019-03-23T19:44:04.633Z,100202.01
2019-03-23T19:46:35.465Z,100196.84
2019-03-23T19:49:05.174Z,100195.14
2019-03-23T19:51:34.851Z,100198.59
2019-03-23T19:54:04.784Z,100199.77
2019-03-23T19:56:34.676Z,100207.70
2019-03-23T19:59:04.308Z,100210.55
2019-03-23T20:01:34.010Z,100210.14
2019-03-23T20:04:04.296Z,100206.17
2019-03-23T20:06:33.983Z,100208.62
2019-03-23T20:09:04.181Z,100210.92
2019-03-23T20:11:33.914Z,100203.90
2019-03-23T20:14:04.766Z,100200.80
2019-03-23T20:16:35.918Z,100205.63
2019-03-23T20:19:05.671Z,100205.89
2019-03-23T20:21:35.596Z,100211.14
2019-03-23T20:24:05.519Z,100212.05
2019-03-23T20:26:36.335Z,100200.25
2019-03-23T20:29:06.033Z,100212.34
2019-03-23T20:31:37.989Z,100202.42
2019-03-23T20:34:09.039Z,100204.72
2019-03-23T20:36:43.287Z,100213.66
2019-03-23T20:39:12.915Z,100213.09
2019-03-23T20:41:42.767Z,100216.91
2019-03-23T20:44:13.633Z,100220.30
2019-03-23T20:46:44.741Z,100215.86
2019-03-23T20:49:14.412Z,100217.76
2019-03-23T20:51:44.066Z,100217.67
2019-03-23T20:54:14.871Z,100214.63
2019-03-23T20:56:45.725Z,100209.42
2019-03-23T20:59:15.736Z,100208.50
2019-03-23T21:01:45.470Z,100207.06
2019-03-23T21:04:15.094Z,100201.03
2019-03-23T21:06:45.945Z,100210.28
2019-03-23T21:09:15.623Z,100208.01
2019-03-23T21:11:45.241Z,100199.63
2019-03-23T21:14:20.137Z,100203.55
2019-03-23T21:16:47.606Z,100204.88
2019-03-23T21:19:17.308Z,100206.77
2019-03-23T21:21:49.053Z,100202.59
2019-03-23T21:24:18.739Z,100201.42
2019-03-23T21:26:48.460Z,100199.22
2019-03-23T21:29:18.172Z,100195.55
2019-03-23T21:31:47.857Z,100190.19
2019-03-23T21:34:17.644Z,100193.13
2019-03-23T21:36:47.330Z,100189.24
2019-03-23T21:39:17.039Z,100192.91
2019-03-23T21:41:46.687Z,100195.83
2019-03-23T21:44:18.722Z,100183.72
2019-03-23T21:46:50.487Z,100181.09
2019-03-23T21:49:20.079Z,100177.17
2019-03-23T21:51:49.753Z,100176.80
2019-03-23T21:54:20.422Z,100177.60
2019-03-23T21:56:51.965Z,100172.45
2019-03-23T21:59:21.702Z,100173.59
2019-03-23T22:01:51.435Z,100178.30
2019-03-23T22:04:21.103Z,100175.45
2019-03-23T22:06:52.052Z,100168.39
2019-03-23T22:09:21.655Z,100168.61
2019-03-23T22:12:01.719Z,100168.31
2019-03-23T22:14:41.278Z,100166.41
2019-03-23T22:17:08.996Z,100165.81
2019-03-23T22:19:38.608Z,100164.95
2019-03-23T22:22:08.272Z,100160.24
2019-03-23T22:24:38.161Z,100154.34
2019-03-23T22:27:10.503Z,100164.95
2019-03-23T22:29:41.224Z,100159.61
2019-03-23T22:32:14.698Z,100159.98
2019-03-23T22:34:49.415Z,99714.72
2019-03-23T22:37:23.976Z,100161.75
2019-03-23T22:39:55.307Z,100162.31
2019-03-23T22:42:25.041Z,100164.56
2019-03-23T22:44:54.698Z,100172.46
2019-03-23T22:47:25.574Z,100162.94
2019-03-23T22:49:55.152Z,100152.58
2019-03-23T22:52:26.751Z,100156.20
2019-03-23T22:54:56.341Z,100152.81
2019-03-23T22:57:26.699Z,100147.64
2019-03-23T22:59:56.397Z,100146.65
2019-03-23T23:02:26.054Z,100149.68
2019-03-23T23:04:55.640Z,100140.77
2019-03-23T23:07:27.873Z,100146.06
2019-03-23T23:09:57.502Z,100145.31
2019-03-23T23:12:27.262Z,100145.20
2019-03-23T23:15:04.433Z,100145.44
2019-03-23T23:17:28.318Z,100141.20
2019-03-23T23:19:57.972Z,100134.95
2019-03-23T23:22:27.618Z,100128.75
2019-03-23T23:24:57.328Z,100117.83
2019-03-23T23:27:26.967Z,100117.36
2019-03-23T23:29:56.609Z,100121.51
2019-03-23T23:32:26.242Z,100106.50
2019-03-23T23:34:55.903Z,100105.33
2019-03-23T23:37:25.531Z,100108.66
2019-03-23T23:39:55.144Z,100116.58
2019-03-23T23:42:26.943Z,100108.37
2019-03-23T23:44:56.659Z,100110.26
2019-03-23T23:47:27.941Z,100111.52
2019-03-23T23:50:01.645Z,100112.98
2019-03-23T23:52:31.384Z,100119.55
2019-03-23T23:55:01.059Z,100114.53
2019-03-23T23:57:30.745Z,100110.52
